Time,TemperatureF,DewpointF,PressureIn,WindDirection,WindDirectionDegrees,WindSpeedMPH,WindSpeedGustMPH,Humidity,HourlyPrecipIn,Conditions,Clouds,dailyrainin,SoftwareType,DateUTC
2013-01-12 00:02:00,35.6,33.2,29.80,WSW,239,0.0,0.0,91,0.00,,---,0.00,VWS V13.00,2013-01-12 09:02:00,
2013-01-12 00:07:00,35.8,33.4,29.80,WSW,239,0.0,0.0,91,0.00,,---,0.00,VWS V13.00,2013-01-12 09:07:00,
2013-01-12 00:12:00,35.8,33.7,29.80,SW,223,0.0,0.0,92,0.00,,---,0.00,VWS V13.00,2013-01-12 09:12:00,
2013-01-12 00:17:00,35.8,33.7,29.80,SW,229,0.0,0.0,92,0.00,,---,0.00,VWS V13.00,2013-01-12 09:17:00,
2013-01-12 00:22:00,35.8,33.7,29.80,WSW,239,0.0,0.0,92,0.00,,---,0.00,VWS V13.00,2013-01-12 09:22:00,
2013-01-12 00:27:00,35.8,33.7,29.80,SW,217,0.0,0.0,92,0.00,,---,0.00,VWS V13.00,2013-01-12 09:27:00,
2013-01-12 00:32:00,35.8,33.7,29.80,SW,217,0.0,0.0,92,0.00,,---,0.00,VWS V13.00,2013-01-12 09:32:00,
2013-01-12 00:37:00,35.8,33.7,29.80,WSW,245,0.0,0.0,92,0.00,,---,0.00,VWS V13.00,2013-01-12 09:37:00,
2013-01-12 00:42:00,36.0,34.1,29.80,WSW,258,0.0,0.0,93,0.00,,---,0.00,VWS V13.00,2013-01-12 09:42:00,
2013-01-12 00:47:00,35.8,34.0,29.80,WSW,258,0.0,0.0,93,0.00,,---,0.00,VWS V13.00,2013-01-12 09:47:00,
2013-01-12 00:52:00,36.0,34.1,29.80,WSW,237,0.0,0.0,93,0.00,,---,0.00,VWS V13.00,2013-01-12 09:52:00,
2013-01-12 00:57:00,36.0,34.1,29.80,WSW,241,0.0,0.0,93,0.00,,---,0.00,VWS V13.00,2013-01-12 09:57:00,
2013-01-12 01:02:00,36.0,34.1,29.80,NW,307,0.0,0.0,93,0.00,,---,0.00,VWS V13.00,2013-01-12 10:02:00,
2013-01-12 01:07:00,36.1,34.3,29.80,SSW,196,0.0,0.0,93,0.00,,---,0.00,VWS V13.00,2013-01-12 10:07:00,
2013-01-12 01:12:00,36.1,34.3,29.80,SSW,207,0.0,0.0,93,0.00,,---,0.00,VWS V13.00,2013-01-12 10:12:00,
2013-01-12 01:17:00,36.3,34.5,29.80,SSW,206,0.0,0.0,93,0.00,,---,0.00,VWS V13.00,2013-01-12 10:17:00,
2013-01-12 01:22:00,36.3,34.5,29.80,SW,229,0.0,0.0,93,0.00,,---,0.00,VWS V13.00,2013-01-12 10:22:00,
2013-01-12 01:27:00,36.3,34.5,29.80,SSW,193,0.0,0.0,93,0.00,,---,0.00,VWS V13.00,2013-01-12 10:27:00,
2013-01-12 01:32:00,36.3,34.8,29.80,SSW,206,0.0,0.0,94,0.00,,---,0.00,VWS V13.00,2013-01-12 10:32:00,
2013-01-12 01:37:00,36.3,34.8,29.80,South,190,0.0,0.0,94,0.00,,---,0.00,VWS V13.00,2013-01-12 10:37:00,
2013-01-12 01:42:00,36.3,34.8,29.80,South,190,0.0,0.0,94,0.00,,---,0.00,VWS V13.00,2013-01-12 10:42:00,
2013-01-12 01:47:00,36.3,34.8,29.80,South,190,0.0,0.0,94,0.00,,---,0.00,VWS V13.00,2013-01-12 10:47:00,
2013-01-12 01:52:00,36.3,34.8,29.80,South,190,0.0,0.0,94,0.00,,---,0.00,VWS V13.00,2013-01-12 10:52:00,
2013-01-12 01:57:00,36.1,34.3,29.80,South,190,0.0,0.0,93,0.00,,---,0.00,VWS V13.00,2013-01-12 10:57:00,
2013-01-12 02:02:00,36.1,34.3,29.80,South,190,0.0,0.0,93,0.00,,---,0.00,VWS V13.00,2013-01-12 11:02:00,
2013-01-12 02:07:00,36.0,34.1,29.80,South,190,0.0,0.0,93,0.00,,---,0.00,VWS V13.00,2013-01-12 11:07:00,
2013-01-12 02:12:00,36.0,34.1,29.77,South,190,0.0,0.0,93,0.00,,---,0.00,VWS V13.00,2013-01-12 11:12:00,
2013-01-12 02:17:00,36.0,34.1,29.77,South,190,0.0,0.0,93,0.00,,---,0.00,VWS V13.00,2013-01-12 11:17:00,
2013-01-12 02:22:00,35.8,34.0,29.77,South,190,0.0,0.0,93,0.00,,---,0.00,VWS V13.00,2013-01-12 11:22:00,
2013-01-12 02:27:00,35.8,34.0,29.77,South,190,0.0,0.0,93,0.00,,---,0.00,VWS V13.00,2013-01-12 11:27:00,
2013-01-12 02:32:00,36.0,34.4,29.77,South,190,0.0,0.0,94,0.00,,---,0.00,VWS V13.00,2013-01-12 11:32:00,
2013-01-12 02:37:00,36.0,34.4,29.77,South,190,0.0,0.0,94,0.00,,---,0.00,VWS V13.00,2013-01-12 11:37:00,
2013-01-12 02:42:00,36.0,34.4,29.77,South,190,0.0,0.0,94,0.00,,---,0.00,VWS V13.00,2013-01-12 11:42:00,
2013-01-12 02:47:00,35.8,34.2,29.77,South,190,0.0,0.0,94,0.00,,---,0.00,VWS V13.00,2013-01-12 11:47:00,
2013-01-12 02:52:00,35.8,34.0,29.77,South,190,0.0,0.0,93,0.00,,---,0.00,VWS V13.00,2013-01-12 11:52:00,
2013-01-12 02:57:00,35.8,34.0,29.77,South,190,0.0,0.0,93,0.00,,---,0.00,VWS V13.00,2013-01-12 11:57:00,
2013-01-12 03:02:00,35.8,34.2,29.77,South,190,0.0,0.0,94,0.00,,---,0.00,VWS V13.00,2013-01-12 12:02:00,
2013-01-12 03:07:00,35.8,34.2,29.77,South,190,0.0,0.0,94,0.00,,---,0.00,VWS V13.00,2013-01-12 12:07:00,
2013-01-12 03:12:00,35.8,34.2,29.77,South,190,0.0,0.0,94,0.00,,---,0.00,VWS V13.00,2013-01-12 12:12:00,
2013-01-12 03:17:00,35.8,34.2,29.77,South,190,0.0,0.0,94,0.00,,---,0.00,VWS V13.00,2013-01-12 12:17:00,
2013-01-12 03:22:00,35.8,34.2,29.77,South,190,0.0,0.0,94,0.00,,---,0.00,VWS V13.00,2013-01-12 12:22:00,
2013-01-12 03:27:00,36.0,34.4,29.77,South,190,0.0,0.0,94,0.00,,---,0.00,VWS V13.00,2013-01-12 12:27:00,
2013-01-12 03:32:00,36.0,34.4,29.77,South,190,0.0,0.0,94,0.00,,---,0.00,VWS V13.00,2013-01-12 12:32:00,
2013-01-12 03:37:00,36.0,34.4,29.77,South,190,0.0,0.0,94,0.00,,---,0.00,VWS V13.00,2013-01-12 12:37:00,
2013-01-12 03:42:00,36.0,34.4,29.77,South,190,0.0,0.0,94,0.00,,---,0.00,VWS V13.00,2013-01-12 12:42:00,
2013-01-12 03:47:00,36.0,34.4,29.77,South,190,0.0,0.0,94,0.00,,---,0.00,VWS V13.00,2013-01-12 12:47:00,
2013-01-12 03:52:00,36.1,34.6,29.77,SSW,209,0.0,0.0,94,0.00,,---,0.00,VWS V13.00,2013-01-12 12:52:00,
2013-01-12 03:57:00,36.3,34.8,29.77,South,180,0.0,0.0,94,0.00,,---,0.00,VWS V13.00,2013-01-12 12:57:00,
2013-01-12 04:02:00,36.7,35.4,29.77,SSE,158,0.0,0.0,95,0.00,,---,0.00,VWS V13.00,2013-01-12 13:02:00,
2013-01-12 04:07:00,36.7,35.4,29.77,SSE,154,0.0,0.0,95,0.00,,---,0.00,VWS V13.00,2013-01-12 13:07:00,
2013-01-12 04:12:00,36.7,35.4,29.77,ESE,106,0.0,0.0,95,0.00,,---,0.00,VWS V13.00,2013-01-12 13:12:00,
2013-01-12 04:17:00,36.9,35.6,29.77,SSE,168,0.0,0.0,95,0.00,,---,0.00,VWS V13.00,2013-01-12 13:17:00,
2013-01-12 04:22:00,36.9,35.6,29.77,South,174,0.0,0.0,95,0.00,,---,0.00,VWS V13.00,2013-01-12 13:22:00,
2013-01-12 04:27:00,37.0,35.7,29.74,SSW,211,0.0,0.0,95,0.00,,---,0.00,VWS V13.00,2013-01-12 13:27:00,
2013-01-12 04:32:00,37.0,35.7,29.74,SSW,202,0.0,0.0,95,0.00,,---,0.00,VWS V13.00,2013-01-12 13:32:00,
2013-01-12 04:37:00,37.0,35.7,29.74,South,173,0.0,0.0,95,0.00,,---,0.00,VWS V13.00,2013-01-12 13:37:00,
2013-01-12 04:42:00,36.9,35.6,29.74,SSW,203,0.0,0.0,95,0.00,,---,0.00,VWS V13.00,2013-01-12 13:42:00,
2013-01-12 04:47:00,36.9,35.6,29.74,South,187,0.0,0.0,95,0.00,,---,0.00,VWS V13.00,2013-01-12 13:47:00,
2013-01-12 04:52:00,37.0,36.0,29.74,SW,229,0.0,0.0,96,0.00,,---,0.00,VWS V13.00,2013-01-12 13:52:00,
2013-01-12 04:57:00,37.0,36.0,29.74,SW,220,0.0,0.0,96,0.00,,---,0.00,VWS V13.00,2013-01-12 13:57:00,
2013-01-12 05:02:00,37.0,36.0,29.74,SSW,196,0.0,0.0,96,0.00,,---,0.00,VWS V13.00,2013-01-12 14:02:00,
2013-01-12 05:07:00,37.2,36.2,29.74,SSW,206,0.0,0.0,96,0.00,,---,0.00,VWS V13.00,2013-01-12 14:07:00,
2013-01-12 05:12:00,37.4,36.4,29.74,SSW,195,0.0,0.0,96,0.00,,---,0.00,VWS V13.00,2013-01-12 14:12:00,
2013-01-12 05:17:00,37.4,36.4,29.74,SSW,199,0.0,0.0,96,0.00,,---,0.00,VWS V13.00,2013-01-12 14:17:00,
2013-01-12 05:22:00,37.4,36.6,29.74,South,181,0.0,0.0,97,0.00,,---,0.00,VWS V13.00,2013-01-12 14:22:00,
2013-01-12 05:27:00,37.4,36.6,29.74,SW,219,0.0,0.0,97,0.00,,---,0.00,VWS V13.00,2013-01-12 14:27:00,
2013-01-12 05:32:00,37.6,36.8,29.74,SW,222,0.0,0.0,97,0.00,,---,0.00,VWS V13.00,2013-01-12 14:32:00,
2013-01-12 05:37:00,37.6,36.8,29.74,SW,216,0.0,0.0,97,0.00,,---,0.00,VWS V13.00,2013-01-12 14:37:00,
2013-01-12 05:42:00,37.6,36.8,29.74,SSW,192,0.0,0.0,97,0.00,,---,0.00,VWS V13.00,2013-01-12 14:42:00,
2013-01-12 05:47:00,37.6,36.8,29.71,SSW,211,0.0,0.0,97,0.00,,---,0.00,VWS V13.00,2013-01-12 14:47:00,
2013-01-12 05:52:00,37.6,36.8,29.71,SSW,202,0.0,0.0,97,0.00,,---,0.00,VWS V13.00,2013-01-12 14:52:00,
2013-01-12 05:57:00,37.6,36.8,29.71,South,173,0.0,0.0,97,0.00,,---,0.00,VWS V13.00,2013-01-12 14:57:00,
2013-01-12 06:02:00,37.8,37.2,29.71,SSW,199,0.0,0.0,98,0.00,,---,0.00,VWS V13.00,2013-01-12 15:02:00,
2013-01-12 06:07:00,37.8,37.2,29.71,South,187,0.0,0.0,98,0.00,,---,0.00,VWS V13.00,2013-01-12 15:07:00,
2013-01-12 06:12:00,37.9,37.4,29.71,SW,219,0.0,0.0,98,0.00,,---,0.00,VWS V13.00,2013-01-12 15:12:00,
2013-01-12 06:17:00,37.9,37.4,29.71,South,178,0.0,8.7,98,0.00,,---,0.00,VWS V13.00,2013-01-12 15:17:00,
2013-01-12 06:22:00,37.9,37.4,29.71,South,170,0.0,0.0,98,0.00,,---,0.00,VWS V13.00,2013-01-12 15:22:00,
2013-01-12 06:27:00,37.9,37.4,29.71,SSW,212,0.0,0.0,98,0.00,,---,0.00,VWS V13.00,2013-01-12 15:27:00,
2013-01-12 06:32:00,37.9,37.4,29.71,SSW,199,0.0,0.0,98,0.00,,---,0.00,VWS V13.00,2013-01-12 15:32:00,
2013-01-12 06:37:00,37.9,37.4,29.71,South,186,0.0,0.0,98,0.00,,---,0.00,VWS V13.00,2013-01-12 15:37:00,
2013-01-12 06:42:00,38.1,37.6,29.71,South,189,0.0,0.0,98,0.00,,---,0.00,VWS V13.00,2013-01-12 15:42:00,
2013-01-12 06:47:00,38.3,37.8,29.71,SSW,204,0.0,0.0,98,0.00,,---,0.00,VWS V13.00,2013-01-12 15:47:00,
2013-01-12 06:52:00,38.3,37.8,29.68,South,180,0.0,0.0,98,0.00,,---,0.00,VWS V13.00,2013-01-12 15:52:00,
2013-01-12 06:57:00,38.3,37.8,29.68,South,180,0.0,0.0,98,0.00,,---,0.00,VWS V13.00,2013-01-12 15:57:00,
2013-01-12 07:02:00,38.3,37.8,29.68,SW,220,0.0,0.0,98,0.00,,---,0.00,VWS V13.00,2013-01-12 16:02:00,
2013-01-12 07:07:00,38.3,37.8,29.68,SW,220,0.0,0.0,98,0.00,,---,0.00,VWS V13.00,2013-01-12 16:07:00,
2013-01-12 07:12:00,38.1,37.6,29.68,SW,220,0.0,0.0,98,0.00,,---,0.00,VWS V13.00,2013-01-12 16:12:00,
2013-01-12 07:17:00,38.1,37.6,29.68,SW,215,0.0,0.0,98,0.00,,---,0.00,VWS V13.00,2013-01-12 16:17:00,
2013-01-12 07:22:00,38.1,37.6,29.68,SSW,204,0.0,0.0,98,0.00,,---,0.00,VWS V13.00,2013-01-12 16:22:00,
2013-01-12 07:27:00,37.9,37.4,29.68,SSW,195,0.0,0.0,98,0.00,,---,0.00,VWS V13.00,2013-01-12 16:27:00,
2013-01-12 07:32:00,37.9,37.4,29.68,SSW,195,0.0,0.0,98,0.00,,---,0.00,VWS V13.00,2013-01-12 16:32:00,
2013-01-12 07:37:00,37.9,37.4,29.68,SSW,196,0.0,0.0,98,0.00,,---,0.00,VWS V13.00,2013-01-12 16:37:00,
2013-01-12 07:42:00,38.1,37.6,29.68,South,181,0.0,0.0,98,0.00,,---,0.00,VWS V13.00,2013-01-12 16:42:00,
2013-01-12 07:47:00,38.1,37.6,29.68,SSW,200,0.0,0.0,98,0.00,,---,0.00,VWS V13.00,2013-01-12 16:47:00,
2013-01-12 07:52:00,38.1,37.6,29.68,South,191,0.0,0.0,98,0.00,,---,0.00,VWS V13.00,2013-01-12 16:52:00,
2013-01-12 07:57:00,37.9,37.4,29.68,SW,220,0.0,0.0,98,0.00,,---,0.00,VWS V13.00,2013-01-12 16:57:00,
2013-01-12 08:02:00,37.9,37.4,29.68,SSW,202,0.0,0.0,98,0.00,,---,0.00,VWS V13.00,2013-01-12 17:02:00,
2013-01-12 08:07:00,38.1,37.6,29.68,SSW,198,0.0,0.0,98,0.00,,---,0.00,VWS V13.00,2013-01-12 17:07:00,
2013-01-12 08:12:00,38.1,37.6,29.68,SSW,208,0.0,0.0,98,0.00,,---,0.00,VWS V13.00,2013-01-12 17:12:00,
2013-01-12 08:17:00,38.1,37.6,29.68,SSW,208,0.0,0.0,98,0.00,,---,0.00,VWS V13.00,2013-01-12 17:17:00,
2013-01-12 08:22:00,38.1,37.6,29.68,SSW,206,0.0,0.0,98,0.00,,---,0.00,VWS V13.00,2013-01-12 17:22:00,
2013-01-12 08:27:00,38.1,37.6,29.68,SSW,206,0.0,0.0,98,0.00,,---,0.00,VWS V13.00,2013-01-12 17:27:00,
2013-01-12 08:32:00,37.9,37.4,29.68,SSW,203,0.0,0.0,98,0.00,,---,0.00,VWS V13.00,2013-01-12 17:32:00,
2013-01-12 08:37:00,37.8,37.2,29.68,SSW,205,0.0,0.0,98,0.00,,---,0.00,VWS V13.00,2013-01-12 17:37:00,
2013-01-12 08:42:00,37.8,37.2,29.68,SSW,205,0.0,0.0,98,0.00,,---,0.00,VWS V13.00,2013-01-12 17:42:00,
2013-01-12 08:47:00,37.6,37.1,29.68,SW,218,0.0,0.0,98,0.00,,---,0.00,VWS V13.00,2013-01-12 17:47:00,
2013-01-12 08:52:00,37.6,37.1,29.68,SW,218,0.0,0.0,98,0.00,,---,0.00,VWS V13.00,2013-01-12 17:52:00,
2013-01-12 08:57:00,37.6,37.1,29.68,SSW,196,0.0,0.0,98,0.00,,---,0.00,VWS V13.00,2013-01-12 17:57:00,
2013-01-12 09:02:00,37.6,37.1,29.68,South,183,0.0,0.0,98,0.00,,---,0.00,VWS V13.00,2013-01-12 18:02:00,
2013-01-12 09:07:00,37.6,37.1,29.68,SW,215,0.0,0.0,98,0.00,,---,0.00,VWS V13.00,2013-01-12 18:07:00,
2013-01-12 09:12:00,37.6,37.1,29.68,SSW,201,0.0,0.0,98,0.00,,---,0.00,VWS V13.00,2013-01-12 18:12:00,
2013-01-12 09:17:00,37.6,37.1,29.68,SSW,201,0.0,0.0,98,0.00,,---,0.00,VWS V13.00,2013-01-12 18:17:00,
2013-01-12 09:22:00,37.6,37.1,29.68,SSW,202,0.0,0.0,98,0.00,,---,0.00,VWS V13.00,2013-01-12 18:22:00,
2013-01-12 09:27:00,37.4,36.9,29.68,South,181,0.0,0.0,98,0.00,,---,0.00,VWS V13.00,2013-01-12 18:27:00,
2013-01-12 09:32:00,37.4,36.9,29.68,South,181,0.0,0.0,98,0.00,,---,0.00,VWS V13.00,2013-01-12 18:32:00,
2013-01-12 09:37:00,37.2,36.7,29.68,South,186,0.0,0.0,98,0.00,,---,0.00,VWS V13.00,2013-01-12 18:37:00,
2013-01-12 09:42:00,37.2,36.7,29.68,SSW,211,0.0,0.0,98,0.00,,---,0.00,VWS V13.00,2013-01-12 18:42:00,
2013-01-12 09:47:00,37.2,36.7,29.68,SSW,211,0.0,0.0,98,0.00,,---,0.00,VWS V13.00,2013-01-12 18:47:00,
2013-01-12 09:52:00,37.2,36.7,29.68,SSE,158,0.0,0.0,98,0.00,,---,0.00,VWS V13.00,2013-01-12 18:52:00,
2013-01-12 09:57:00,37.2,36.7,29.68,SSE,158,0.0,0.0,98,0.00,,---,0.00,VWS V13.00,2013-01-12 18:57:00,
2013-01-12 10:02:00,37.2,36.7,29.68,SSW,203,0.0,0.0,98,0.00,,---,0.00,VWS V13.00,2013-01-12 19:02:00,
2013-01-12 10:07:00,37.2,36.7,29.68,SSW,200,0.0,0.0,98,0.00,,---,0.00,VWS V13.00,2013-01-12 19:07:00,
2013-01-12 10:12:00,37.2,36.7,29.68,South,189,0.0,0.0,98,0.00,,---,0.00,VWS V13.00,2013-01-12 19:12:00,
2013-01-12 10:17:00,37.2,36.7,29.68,SSW,197,0.0,0.0,98,0.00,,---,0.00,VWS V13.00,2013-01-12 19:17:00,
2013-01-12 10:22:00,37.2,36.7,29.68,SW,227,0.0,0.0,98,0.00,,---,0.00,VWS V13.00,2013-01-12 19:22:00,
2013-01-12 10:27:00,37.0,36.5,29.68,South,177,0.0,0.0,98,0.00,,---,0.00,VWS V13.00,2013-01-12 19:27:00,
2013-01-12 10:32:00,37.0,36.5,29.68,SW,225,0.0,0.0,98,0.00,,---,0.00,VWS V13.00,2013-01-12 19:32:00,
2013-01-12 10:37:00,37.2,36.7,29.68,SW,225,0.0,0.0,98,0.00,,---,0.00,VWS V13.00,2013-01-12 19:37:00,
2013-01-12 10:42:00,37.2,36.7,29.68,SSW,212,0.0,0.0,98,0.00,,---,0.00,VWS V13.00,2013-01-12 19:42:00,
2013-01-12 10:47:00,37.2,36.7,29.68,SSW,211,0.0,0.0,98,0.00,,---,0.00,VWS V13.00,2013-01-12 19:47:00,
2013-01-12 10:52:00,37.2,36.7,29.68,SSW,211,0.0,0.0,98,0.00,,---,0.00,VWS V13.00,2013-01-12 19:52:00,
2013-01-12 10:57:00,37.4,36.9,29.68,SSW,203,0.0,0.0,98,0.00,,---,0.00,VWS V13.00,2013-01-12 19:57:00,
2013-01-12 11:02:00,37.4,36.9,29.68,SSW,199,0.0,0.0,98,0.00,,---,0.00,VWS V13.00,2013-01-12 20:02:00,
2013-01-12 11:07:00,37.4,36.9,29.68,SW,224,0.0,0.0,98,0.00,,---,0.00,VWS V13.00,2013-01-12 20:07:00,
2013-01-12 11:12:00,37.4,36.9,29.65,SW,221,0.0,0.0,98,0.00,,---,0.00,VWS V13.00,2013-01-12 20:12:00,
2013-01-12 11:17:00,37.4,36.9,29.65,SW,217,0.0,0.0,98,0.00,,---,0.00,VWS V13.00,2013-01-12 20:17:00,
2013-01-12 11:22:00,37.4,36.9,29.65,SSW,197,0.0,0.0,98,0.00,,---,0.00,VWS V13.00,2013-01-12 20:22:00,
2013-01-12 11:27:00,37.4,36.9,29.65,South,191,0.0,0.0,98,0.00,,---,0.00,VWS V13.00,2013-01-12 20:27:00,
2013-01-12 11:32:00,37.4,36.9,29.65,SSW,205,0.0,0.0,98,0.00,,---,0.00,VWS V13.00,2013-01-12 20:32:00,
2013-01-12 11:37:00,37.4,36.9,29.65,SSW,205,0.0,0.0,98,0.00,,---,0.00,VWS V13.00,2013-01-12 20:37:00,
2013-01-12 11:42:00,37.4,36.9,29.65,SSW,208,0.0,0.0,98,0.00,,---,0.00,VWS V13.00,2013-01-12 20:42:00,
2013-01-12 11:47:00,37.6,37.1,29.65,SSW,208,0.0,0.0,98,0.00,,---,0.00,VWS V13.00,2013-01-12 20:47:00,
2013-01-12 11:52:00,37.6,37.1,29.65,SW,233,0.0,0.0,98,0.00,,---,0.00,VWS V13.00,2013-01-12 20:52:00,
2013-01-12 11:57:00,37.8,37.2,29.65,SW,233,0.0,0.0,98,0.00,,---,0.00,VWS V13.00,2013-01-12 20:57:00,
2013-01-12 12:02:00,37.9,37.4,29.65,SSW,203,0.0,0.0,98,0.00,,---,0.00,VWS V13.00,2013-01-12 21:02:00,
2013-01-12 12:07:00,38.1,37.6,29.65,SSW,208,0.0,0.0,98,0.00,,---,0.00,VWS V13.00,2013-01-12 21:07:00,
2013-01-12 12:12:00,38.3,37.8,29.65,SW,225,0.0,0.0,98,0.00,,---,0.00,VWS V13.00,2013-01-12 21:12:00,
2013-01-12 12:17:00,38.5,38.0,29.65,South,182,0.0,0.0,98,0.00,,---,0.00,VWS V13.00,2013-01-12 21:17:00,
2013-01-12 12:22:00,38.7,38.2,29.62,SSW,198,0.0,0.0,98,0.00,,---,0.00,VWS V13.00,2013-01-12 21:22:00,
2013-01-12 12:27:00,38.7,38.2,29.62,SSW,195,0.0,0.0,98,0.00,,---,0.00,VWS V13.00,2013-01-12 21:27:00,
2013-01-12 12:32:00,38.8,38.3,29.62,SSW,197,0.0,0.0,98,0.00,,---,0.00,VWS V13.00,2013-01-12 21:32:00,
2013-01-12 12:37:00,38.8,38.3,29.62,South,178,0.0,0.0,98,0.00,,---,0.00,VWS V13.00,2013-01-12 21:37:00,
2013-01-12 12:42:00,39.0,38.5,29.62,South,191,0.0,0.0,98,0.00,,---,0.00,VWS V13.00,2013-01-12 21:42:00,
2013-01-12 12:47:00,39.0,38.5,29.62,South,176,0.0,0.0,98,0.00,,---,0.00,VWS V13.00,2013-01-12 21:47:00,
2013-01-12 12:52:00,39.0,38.5,29.62,South,178,0.0,0.0,98,0.00,,---,0.00,VWS V13.00,2013-01-12 21:52:00,
2013-01-12 12:57:00,39.0,38.5,29.62,South,176,0.0,0.0,98,0.00,,---,0.00,VWS V13.00,2013-01-12 21:57:00,
2013-01-12 13:02:00,39.0,38.5,29.62,SSE,167,0.0,0.0,98,0.00,,---,0.00,VWS V13.00,2013-01-12 22:02:00,
2013-01-12 13:07:00,39.0,38.5,29.62,South,184,0.0,0.0,98,0.00,,---,0.00,VWS V13.00,2013-01-12 22:07:00,
2013-01-12 13:12:00,39.0,38.5,29.62,South,191,0.0,0.0,98,0.00,,---,0.00,VWS V13.00,2013-01-12 22:12:00,
2013-01-12 13:17:00,39.2,38.7,29.62,South,169,0.0,0.0,98,0.00,,---,0.00,VWS V13.00,2013-01-12 22:17:00,
2013-01-12 13:22:00,39.2,38.7,29.62,SSW,197,0.0,0.0,98,0.00,,---,0.00,VWS V13.00,2013-01-12 22:22:00,
2013-01-12 13:27:00,39.2,38.7,29.62,SSE,165,0.0,0.0,98,0.00,,---,0.00,VWS V13.00,2013-01-12 22:27:00,
2013-01-12 13:32:00,39.2,38.7,29.62,South,185,0.0,0.0,98,0.00,,---,0.00,VWS V13.00,2013-01-12 22:32:00,
2013-01-12 13:37:00,39.2,38.7,29.59,South,185,0.0,0.0,98,0.00,,---,0.00,VWS V13.00,2013-01-12 22:37:00,
2013-01-12 13:42:00,39.2,38.7,29.59,SSW,195,0.0,0.0,98,0.00,,---,0.00,VWS V13.00,2013-01-12 22:42:00,
2013-01-12 13:47:00,39.2,38.7,29.59,South,172,0.0,0.0,98,0.00,,---,0.00,VWS V13.00,2013-01-12 22:47:00,
2013-01-12 13:52:00,39.2,38.7,29.62,SSW,192,0.0,0.0,98,0.00,,---,0.00,VWS V13.00,2013-01-12 22:52:00,
2013-01-12 13:57:00,39.2,38.7,29.62,SSW,199,0.0,0.0,98,0.00,,---,0.00,VWS V13.00,2013-01-12 22:57:00,
2013-01-12 14:02:00,39.2,38.7,29.62,SSW,206,0.0,0.0,98,0.00,,---,0.00,VWS V13.00,2013-01-12 23:02:00,
2013-01-12 14:07:00,39.2,38.7,29.62,SSW,206,0.0,0.0,98,0.00,,---,0.00,VWS V13.00,2013-01-12 23:07:00,
2013-01-12 14:12:00,39.2,38.7,29.62,SSE,168,0.0,0.0,98,0.00,,---,0.00,VWS V13.00,2013-01-12 23:12:00,
2013-01-12 14:17:00,39.2,38.7,29.62,SSW,192,0.0,0.0,98,0.00,,---,0.00,VWS V13.00,2013-01-12 23:17:00,
2013-01-12 14:22:00,39.4,38.9,29.59,South,189,0.0,0.0,98,0.00,,---,0.00,VWS V13.00,2013-01-12 23:22:00,
2013-01-12 14:27:00,39.4,38.9,29.59,SSW,194,0.0,0.0,98,0.00,,---,0.00,VWS V13.00,2013-01-12 23:27:00,
2013-01-12 14:32:00,39.4,38.9,29.59,SSW,206,0.0,0.0,98,0.00,,---,0.00,VWS V13.00,2013-01-12 23:32:00,
2013-01-12 14:37:00,39.4,38.9,29.59,South,190,0.0,0.0,98,0.00,,---,0.00,VWS V13.00,2013-01-12 23:37:00,
2013-01-12 14:42:00,39.6,39.0,29.59,SSW,200,0.0,0.0,98,0.00,,---,0.00,VWS V13.00,2013-01-12 23:42:00,
2013-01-12 14:47:00,39.6,39.0,29.59,SW,221,0.0,0.0,98,0.00,,---,0.00,VWS V13.00,2013-01-12 23:47:00,
2013-01-12 14:52:00,39.6,39.0,29.59,SW,223,0.0,0.0,98,0.00,,---,0.00,VWS V13.00,2013-01-12 23:52:00,
2013-01-12 14:57:00,39.6,39.0,29.59,South,182,0.0,0.0,98,0.00,,---,0.00,VWS V13.00,2013-01-12 23:57:00,
2013-01-12 15:02:00,39.7,39.2,29.59,SSW,210,0.0,0.0,98,0.00,,---,0.00,VWS V13.00,2013-01-13 00:02:00,
2013-01-12 15:07:00,39.7,39.2,29.59,SW,226,0.0,0.0,98,0.00,,---,0.00,VWS V13.00,2013-01-13 00:07:00,
2013-01-12 15:12:00,39.9,39.4,29.59,SSW,203,0.0,0.0,98,0.00,,---,0.00,VWS V13.00,2013-01-13 00:12:00,
2013-01-12 15:21:00,39.7,39.2,29.59,SW,218,0.0,0.0,98,0.00,,---,0.00,VWS V13.00,2013-01-13 00:21:00,
2013-01-12 15:26:00,39.7,39.2,29.59,SW,224,0.0,0.0,98,0.00,,---,0.00,VWS V13.00,2013-01-13 00:26:00,
2013-01-12 15:31:00,39.7,39.2,29.59,SSW,193,0.0,0.0,98,0.00,,---,0.00,VWS V13.00,2013-01-13 00:31:00,
2013-01-12 15:36:00,39.7,39.2,29.59,SW,220,0.0,0.0,98,0.00,,---,0.00,VWS V13.00,2013-01-13 00:36:00,
2013-01-12 15:41:00,39.7,39.2,29.59,SW,217,0.0,0.0,98,0.00,,---,0.00,VWS V13.00,2013-01-13 00:41:00,
2013-01-12 15:46:00,39.9,39.4,29.59,SW,229,0.0,0.0,98,0.00,,---,0.00,VWS V13.00,2013-01-13 00:46:00,
2013-01-12 15:51:00,39.7,39.2,29.59,SSW,192,0.0,0.0,98,0.00,,---,0.00,VWS V13.00,2013-01-13 00:51:00,
2013-01-12 15:56:00,39.7,39.2,29.59,SSW,197,0.0,0.0,98,0.00,,---,0.00,VWS V13.00,2013-01-13 00:56:00,
2013-01-12 16:01:00,39.6,39.0,29.59,SSW,213,0.0,0.0,98,0.00,,---,0.00,VWS V13.00,2013-01-13 01:01:00,
2013-01-12 16:06:00,39.4,38.9,29.59,SW,229,0.0,0.0,98,0.00,,---,0.00,VWS V13.00,2013-01-13 01:06:00,
2013-01-12 16:11:00,39.4,38.9,29.59,SW,231,0.0,0.0,98,0.00,,---,0.00,VWS V13.00,2013-01-13 01:11:00,
2013-01-12 16:16:00,39.4,38.9,29.59,SW,229,0.0,0.0,98,0.00,,---,0.00,VWS V13.00,2013-01-13 01:16:00,
2013-01-12 16:21:00,39.2,38.7,29.59,SSW,212,0.0,0.0,98,0.00,,---,0.00,VWS V13.00,2013-01-13 01:21:00,
2013-01-12 16:26:00,39.2,38.7,29.59,SW,230,0.0,0.0,98,0.00,,---,0.00,VWS V13.00,2013-01-13 01:26:00,
2013-01-12 16:31:00,39.0,38.5,29.59,South,191,0.0,0.0,98,0.00,,---,0.00,VWS V13.00,2013-01-13 01:31:00,
2013-01-12 16:36:00,38.8,38.3,29.59,SSW,206,0.0,0.0,98,0.00,,---,0.00,VWS V13.00,2013-01-13 01:36:00,
2013-01-12 16:41:00,38.8,38.3,29.59,SSW,208,0.0,0.0,98,0.00,,---,0.00,VWS V13.00,2013-01-13 01:41:00,
2013-01-12 16:46:00,38.8,38.3,29.59,SW,231,0.0,0.0,98,0.00,,---,0.00,VWS V13.00,2013-01-13 01:46:00,
2013-01-12 16:51:00,38.8,38.3,29.59,SW,231,0.0,0.0,98,0.00,,---,0.00,VWS V13.00,2013-01-13 01:51:00,
2013-01-12 16:56:00,38.7,38.2,29.59,SSW,206,0.0,0.0,98,0.00,,---,0.00,VWS V13.00,2013-01-13 01:56:00,
2013-01-12 17:01:00,38.7,38.2,29.59,SSW,207,0.0,0.0,98,0.00,,---,0.00,VWS V13.00,2013-01-13 02:01:00,
2013-01-12 17:06:00,38.7,38.2,29.59,SW,215,0.0,0.0,98,0.00,,---,0.00,VWS V13.00,2013-01-13 02:06:00,
2013-01-12 17:11:00,38.7,38.2,29.59,South,191,0.0,0.0,98,0.00,,---,0.00,VWS V13.00,2013-01-13 02:11:00,
2013-01-12 17:16:00,38.5,38.0,29.59,South,183,0.0,0.0,98,0.00,,---,0.00,VWS V13.00,2013-01-13 02:16:00,
2013-01-12 17:21:00,38.5,38.0,29.59,SSW,210,0.0,0.0,98,0.00,,---,0.00,VWS V13.00,2013-01-13 02:21:00,
2013-01-12 17:26:00,38.3,37.8,29.59,SSW,204,0.0,0.0,98,0.00,,---,0.00,VWS V13.00,2013-01-13 02:26:00,
2013-01-12 17:31:00,38.3,37.8,29.59,SSW,213,0.0,0.0,98,0.00,,---,0.00,VWS V13.00,2013-01-13 02:31:00,
2013-01-12 17:36:00,38.1,37.6,29.59,SSW,203,0.0,0.0,98,0.00,,---,0.00,VWS V13.00,2013-01-13 02:36:00,
2013-01-12 17:41:00,38.1,37.6,29.59,SSW,204,0.0,0.0,98,0.00,,---,0.00,VWS V13.00,2013-01-13 02:41:00,
2013-01-12 17:46:00,38.1,37.6,29.59,SW,217,0.0,0.0,98,0.00,,---,0.00,VWS V13.00,2013-01-13 02:46:00,
2013-01-12 17:51:00,38.1,37.6,29.59,WSW,249,0.0,0.0,98,0.00,,---,0.00,VWS V13.00,2013-01-13 02:51:00,
2013-01-12 17:56:00,38.1,37.6,29.59,WSW,249,0.0,0.0,98,0.00,,---,0.00,VWS V13.00,2013-01-13 02:56:00,
2013-01-12 18:01:00,37.9,37.4,29.59,WSW,238,0.0,0.0,98,0.00,,---,0.00,VWS V13.00,2013-01-13 03:01:00,
2013-01-12 18:06:00,38.1,37.6,29.59,SW,222,0.0,0.0,98,0.00,,---,0.00,VWS V13.00,2013-01-13 03:06:00,
2013-01-12 18:11:00,38.1,37.6,29.59,WSW,258,0.0,0.0,98,0.00,,---,0.00,VWS V13.00,2013-01-13 03:11:00,
2013-01-12 18:16:00,38.1,37.6,29.59,SW,233,0.0,0.0,98,0.00,,---,0.00,VWS V13.00,2013-01-13 03:16:00,
2013-01-12 18:21:00,38.3,37.8,29.59,WSW,237,0.0,0.0,98,0.00,,---,0.00,VWS V13.00,2013-01-13 03:21:00,
2013-01-12 18:26:00,38.5,38.0,29.59,West,263,0.0,0.0,98,0.00,,---,0.00,VWS V13.00,2013-01-13 03:26:00,
2013-01-12 18:31:00,38.5,38.0,29.59,SW,223,0.0,0.0,98,0.00,,---,0.00,VWS V13.00,2013-01-13 03:31:00,
2013-01-12 18:36:00,38.8,38.3,29.59,SW,233,0.0,0.0,98,0.00,,---,0.00,VWS V13.00,2013-01-13 03:36:00,
2013-01-12 18:41:00,38.8,38.3,29.59,SW,224,0.0,0.0,98,0.00,,---,0.00,VWS V13.00,2013-01-13 03:41:00,
2013-01-12 18:46:00,38.8,38.3,29.59,WSW,246,0.0,0.0,98,0.00,,---,0.00,VWS V13.00,2013-01-13 03:46:00,
2013-01-12 18:51:00,38.7,38.2,29.56,WSW,246,0.0,0.0,98,0.00,,---,0.00,VWS V13.00,2013-01-13 03:51:00,
2013-01-12 18:56:00,38.7,38.2,29.56,WSW,239,0.0,0.0,98,0.00,,---,0.00,VWS V13.00,2013-01-13 03:56:00,
2013-01-12 19:01:00,38.7,38.2,29.56,SSW,210,0.0,0.0,98,0.00,,---,0.00,VWS V13.00,2013-01-13 04:01:00,
2013-01-12 19:06:00,38.8,38.3,29.56,SSW,204,0.0,0.0,98,0.00,,---,0.00,VWS V13.00,2013-01-13 04:06:00,
2013-01-12 19:11:00,38.8,38.3,29.56,South,186,0.0,0.0,98,0.00,,---,0.00,VWS V13.00,2013-01-13 04:11:00,
2013-01-12 19:16:00,38.8,38.3,29.56,SSW,197,0.0,0.0,98,0.00,,---,0.00,VWS V13.00,2013-01-13 04:16:00,
2013-01-12 19:21:00,38.8,38.3,29.56,SW,232,0.0,0.0,98,0.00,,---,0.00,VWS V13.00,2013-01-13 04:21:00,
2013-01-12 19:26:00,38.8,38.3,29.56,WSW,258,0.0,0.0,98,0.00,,---,0.00,VWS V13.00,2013-01-13 04:26:00,
2013-01-12 19:31:00,39.0,38.5,29.56,SW,221,0.0,0.0,98,0.00,,---,0.00,VWS V13.00,2013-01-13 04:31:00,
2013-01-12 19:36:00,39.2,38.7,29.56,WSW,238,0.0,0.0,98,0.00,,---,0.00,VWS V13.00,2013-01-13 04:36:00,
2013-01-12 19:41:00,39.2,38.7,29.56,SW,219,0.0,0.0,98,0.00,,---,0.00,VWS V13.00,2013-01-13 04:41:00,
2013-01-12 19:46:00,39.4,38.9,29.56,SSW,213,0.0,0.0,98,0.00,,---,0.00,VWS V13.00,2013-01-13 04:46:00,
2013-01-12 19:51:00,39.4,38.9,29.56,SW,235,0.0,0.0,98,0.00,,---,0.00,VWS V13.00,2013-01-13 04:51:00,
2013-01-12 19:56:00,39.6,39.0,29.56,SSW,212,0.0,0.0,98,0.00,,---,0.00,VWS V13.00,2013-01-13 04:56:00,
2013-01-12 20:00:00,39.4,38.9,29.56,SSW,198,0.0,0.0,98,0.00,,---,0.00,VWS V13.00,2013-01-13 05:00:00,
2013-01-12 20:03:00,39.4,38.9,29.56,South,185,0.0,0.0,98,0.00,,---,0.00,VWS V13.00,2013-01-13 05:03:00,
2013-01-12 20:08:00,39.6,39.0,29.56,SW,219,0.0,0.0,98,0.00,,---,0.00,VWS V13.00,2013-01-13 05:08:00,
2013-01-12 20:13:00,39.6,39.0,29.56,SW,232,0.0,0.0,98,0.00,,---,0.00,VWS V13.00,2013-01-13 05:13:00,
2013-01-12 20:18:00,39.9,39.4,29.56,SW,215,0.0,0.0,98,0.00,,---,0.00,VWS V13.00,2013-01-13 05:18:00,
2013-01-12 20:23:00,39.9,39.4,29.56,WSW,248,0.0,0.0,98,0.00,,---,0.00,VWS V13.00,2013-01-13 05:23:00,
2013-01-12 20:28:00,39.9,39.4,29.56,SW,217,0.0,0.0,98,0.00,,---,0.00,VWS V13.00,2013-01-13 05:28:00,
2013-01-12 20:33:00,39.9,39.4,29.56,WSW,239,0.0,0.0,98,0.00,,---,0.00,VWS V13.00,2013-01-13 05:33:00,
2013-01-12 20:38:00,40.1,39.6,29.56,WSW,245,0.0,0.0,98,0.00,,---,0.00,VWS V13.00,2013-01-13 05:38:00,
2013-01-12 20:43:00,40.1,39.6,29.56,SW,214,0.0,0.0,98,0.00,,---,0.00,VWS V13.00,2013-01-13 05:43:00,
2013-01-12 20:48:00,40.3,39.8,29.56,SW,221,0.0,0.0,98,0.00,,---,0.00,VWS V13.00,2013-01-13 05:48:00,
2013-01-12 20:53:00,40.5,39.9,29.56,SW,233,0.0,0.0,98,0.00,,---,0.00,VWS V13.00,2013-01-13 05:53:00,
2013-01-12 20:58:00,40.5,39.9,29.56,WSW,244,0.0,0.0,98,0.00,,---,0.00,VWS V13.00,2013-01-13 05:58:00,
2013-01-12 21:03:00,40.5,39.9,29.56,SSW,194,0.0,0.0,98,0.00,,---,0.00,VWS V13.00,2013-01-13 06:03:00,
2013-01-12 21:08:00,40.5,39.9,29.56,SW,234,0.0,0.0,98,0.00,,---,0.00,VWS V13.00,2013-01-13 06:08:00,
2013-01-12 21:13:00,40.5,39.9,29.56,WSW,256,0.0,0.0,98,0.00,,---,0.00,VWS V13.00,2013-01-13 06:13:00,
2013-01-12 21:18:00,40.5,39.9,29.56,SW,224,0.0,0.0,98,0.00,,---,0.00,VWS V13.00,2013-01-13 06:18:00,
2013-01-12 21:23:00,40.5,39.9,29.56,WSW,249,0.0,0.0,98,0.00,,---,0.00,VWS V13.00,2013-01-13 06:23:00,
2013-01-12 21:28:00,40.5,39.9,29.56,WSW,242,0.0,0.0,98,0.00,,---,0.00,VWS V13.00,2013-01-13 06:28:00,
2013-01-12 21:33:00,40.5,39.9,29.56,SW,234,0.0,0.0,98,0.00,,---,0.00,VWS V13.00,2013-01-13 06:33:00,
2013-01-12 21:38:00,40.5,39.9,29.56,WSW,247,0.0,0.0,98,0.00,,---,0.00,VWS V13.00,2013-01-13 06:38:00,
2013-01-12 21:43:00,40.5,39.9,29.56,SSW,202,0.0,0.0,98,0.00,,---,0.00,VWS V13.00,2013-01-13 06:43:00,
2013-01-12 21:48:00,40.5,39.9,29.56,South,171,0.0,0.0,98,0.00,,---,0.00,VWS V13.00,2013-01-13 06:48:00,
2013-01-12 21:53:00,40.5,39.9,29.56,SW,223,0.0,0.0,98,0.00,,---,0.00,VWS V13.00,2013-01-13 06:53:00,
2013-01-12 21:58:00,40.3,39.8,29.56,SW,228,0.0,0.0,98,0.00,,---,0.00,VWS V13.00,2013-01-13 06:58:00,
2013-01-12 22:03:00,40.3,39.8,29.56,SW,216,0.0,0.0,98,0.00,,---,0.00,VWS V13.00,2013-01-13 07:03:00,
2013-01-12 22:08:00,40.3,39.8,29.56,SSW,192,0.0,0.0,98,0.00,,---,0.00,VWS V13.00,2013-01-13 07:08:00,
2013-01-12 22:13:00,40.5,39.9,29.56,SSW,193,0.0,0.0,98,0.00,,---,0.00,VWS V13.00,2013-01-13 07:13:00,
2013-01-12 22:18:00,40.5,39.9,29.56,SSW,196,0.0,0.0,98,0.00,,---,0.00,VWS V13.00,2013-01-13 07:18:00,
2013-01-12 22:23:00,40.5,39.9,29.56,SSW,213,0.0,0.0,98,0.00,,---,0.00,VWS V13.00,2013-01-13 07:23:00,
2013-01-12 22:28:00,40.5,39.9,29.56,SW,216,0.0,0.0,98,0.00,,---,0.00,VWS V13.00,2013-01-13 07:28:00,
2013-01-12 22:33:00,40.5,39.9,29.56,WSW,241,0.0,0.0,98,0.00,,---,0.00,VWS V13.00,2013-01-13 07:33:00,
2013-01-12 22:38:00,40.5,39.9,29.56,SSW,200,0.0,0.0,98,0.00,,---,0.00,VWS V13.00,2013-01-13 07:38:00,
2013-01-12 22:43:00,40.5,39.9,29.56,South,185,0.0,0.0,98,0.00,,---,0.00,VWS V13.00,2013-01-13 07:43:00,
2013-01-12 22:48:00,40.5,39.9,29.56,SSW,196,0.0,0.0,98,0.00,,---,0.00,VWS V13.00,2013-01-13 07:48:00,
2013-01-12 22:53:00,40.5,39.9,29.56,SW,220,0.0,0.0,98,0.00,,---,0.00,VWS V13.00,2013-01-13 07:53:00,
2013-01-12 22:58:00,40.5,39.9,29.56,SSW,192,0.0,0.0,98,0.00,,---,0.00,VWS V13.00,2013-01-13 07:58:00,
2013-01-12 23:03:00,40.3,39.8,29.56,WSW,239,0.0,0.0,98,0.00,,---,0.00,VWS V13.00,2013-01-13 08:03:00,
2013-01-12 23:08:00,40.5,39.9,29.56,SW,222,0.0,0.0,98,0.00,,---,0.00,VWS V13.00,2013-01-13 08:08:00,
2013-01-12 23:13:00,40.6,40.1,29.56,SSE,167,0.0,0.0,98,0.00,,---,0.00,VWS V13.00,2013-01-13 08:13:00,
2013-01-12 23:18:00,40.6,40.1,29.56,SSW,202,0.0,0.0,98,0.00,,---,0.00,VWS V13.00,2013-01-13 08:18:00,
2013-01-12 23:23:00,40.6,40.1,29.56,South,187,0.0,0.0,98,0.00,,---,0.00,VWS V13.00,2013-01-13 08:23:00,
2013-01-12 23:28:00,40.6,40.1,29.56,SSW,203,0.0,0.0,98,0.00,,---,0.00,VWS V13.00,2013-01-13 08:28:00,
2013-01-12 23:33:00,40.5,39.9,29.56,SSW,202,0.0,0.0,98,0.00,,---,0.00,VWS V13.00,2013-01-13 08:33:00,
2013-01-12 23:38:00,40.5,39.9,29.56,SW,230,0.0,0.0,98,0.00,,---,0.00,VWS V13.00,2013-01-13 08:38:00,
2013-01-12 23:43:00,40.5,39.9,29.56,South,175,0.0,0.0,98,0.00,,---,0.00,VWS V13.00,2013-01-13 08:43:00,
2013-01-12 23:48:00,40.5,39.9,29.56,SSW,201,0.0,0.0,98,0.00,,---,0.00,VWS V13.00,2013-01-13 08:48:00,
2013-01-12 23:53:00,40.5,39.9,29.56,South,182,0.0,0.0,98,0.00,,---,0.00,VWS V13.00,2013-01-13 08:53:00,
2013-01-12 23:58:00,40.5,39.9,29.56,WSW,252,0.0,0.0,98,0.00,,---,0.00,VWS V13.00,2013-01-13 08:58:00,